createdAt,value
2022-12-05T00:01:58.884Z,39.13
2022-12-05T00:04:26.164Z,44.42
2022-12-05T00:06:53.623Z,44.63
2022-12-05T00:09:20.982Z,42.55
2022-12-05T00:11:49.102Z,45.67
2022-12-05T00:14:18.287Z,40.95
2022-12-05T00:16:45.869Z,40.45
2022-12-05T00:19:15.564Z,42.53
2022-12-05T00:21:43.888Z,43.60
2022-12-05T00:24:14.520Z,35.72
2022-12-05T00:26:41.818Z,36.67
2022-12-05T00:29:09.041Z,42.65
2022-12-05T00:31:36.361Z,40.25
2022-12-05T00:34:05.021Z,38.97
2022-12-05T00:36:34.033Z,38.00
2022-12-05T00:39:04.264Z,32.88
2022-12-05T00:41:31.779Z,37.53
2022-12-05T00:44:01.335Z,33.28
2022-12-05T00:46:30.631Z,31.35
2022-12-05T00:48:59.752Z,33.38
2022-12-05T00:51:31.004Z,33.78
2022-12-05T00:54:01.249Z,41.47
2022-12-05T00:56:30.292Z,42.65
2022-12-05T00:58:58.520Z,37.20
2022-12-05T01:01:28.949Z,43.50
2022-12-05T01:03:58.641Z,38.50
2022-12-05T01:06:26.641Z,48.08
2022-12-05T01:08:55.719Z,43.88
2022-12-05T01:11:23.988Z,47.97
2022-12-05T01:13:51.806Z,41.63
2022-12-05T01:16:22.659Z,40.67
2022-12-05T01:18:50.315Z,38.00
2022-12-05T01:21:18.447Z,37.65
2022-12-05T01:23:47.223Z,37.33
2022-12-05T01:26:16.325Z,40.20
2022-12-05T01:28:44.091Z,38.60
2022-12-05T01:31:34.453Z,37.95
2022-12-05T01:34:03.604Z,33.10
2022-12-05T01:36:31.562Z,33.70
2022-12-05T01:38:59.516Z,32.17
2022-12-05T01:41:33.266Z,30.95
2022-12-05T01:44:40.338Z,31.77
2022-12-05T01:47:09.083Z,32.30
2022-12-05T01:49:39.583Z,30.80
2022-12-05T01:52:11.168Z,29.42
2022-12-05T01:54:39.630Z,30.98
2022-12-05T01:57:13.065Z,33.05
2022-12-05T01:59:44.403Z,33.03
2022-12-05T02:02:15.745Z,31.70
2022-12-05T02:05:17.784Z,32.70
2022-12-05T02:07:50.003Z,29.38
2022-12-05T02:10:32.984Z,30.88
2022-12-05T02:13:27.018Z,27.17
2022-12-05T02:16:34.085Z,31.50
2022-12-05T02:19:45.752Z,31.40
2022-12-05T02:22:53.252Z,29.40
2022-12-05T02:26:01.582Z,33.78
2022-12-05T02:29:11.643Z,31.77
2022-12-05T02:31:55.133Z,30.05
2022-12-05T02:34:37.390Z,30.83
2022-12-05T02:37:37.523Z,32.60
2022-12-05T02:40:27.832Z,34.92
2022-12-05T02:43:35.485Z,38.05
2022-12-05T02:46:09.481Z,33.58
2022-12-05T02:48:40.302Z,34.67
2022-12-05T02:51:09.963Z,38.03
2022-12-05T02:53:39.539Z,35.25
2022-12-05T02:56:08.159Z,33.88
2022-12-05T02:58:42.201Z,32.00
2022-12-05T03:01:10.521Z,32.97
2022-12-05T03:03:38.277Z,30.42
2022-12-05T03:06:27.688Z,30.20
2022-12-05T03:09:05.043Z,30.95
2022-12-05T03:11:48.885Z,34.45
2022-12-05T03:14:23.138Z,32.28
2022-12-05T03:16:54.152Z,36.25
2022-12-05T03:19:46.878Z,29.80
2022-12-05T03:22:35.642Z,30.92
2022-12-05T03:25:04.170Z,31.02
2022-12-05T03:27:53.496Z,29.55
2022-12-05T03:30:23.108Z,28.60
2022-12-05T03:33:29.931Z,31.05
2022-12-05T03:36:19.678Z,28.65
2022-12-05T03:39:13.093Z,29.23
2022-12-05T03:41:49.987Z,29.52
2022-12-05T03:44:26.490Z,36.33
2022-12-05T03:47:02.198Z,30.95
2022-12-05T03:49:42.046Z,30.80
2022-12-05T03:52:25.332Z,33.58
2022-12-05T03:54:57.924Z,32.95
2022-12-05T03:57:33.262Z,34.65
2022-12-05T04:03:13.019Z,30.08
2022-12-05T04:05:46.705Z,30.35
2022-12-05T04:08:20.426Z,30.17
2022-12-05T04:10:51.164Z,30.30
2022-12-05T04:13:29.191Z,31.13
2022-12-05T04:16:21.753Z,31.52
2022-12-05T04:18:58.731Z,33.17
2022-12-05T04:21:38.838Z,29.25
2022-12-05T04:24:32.165Z,34.22
2022-12-05T04:27:25.299Z,27.80
2022-12-05T04:30:02.930Z,26.70
2022-12-05T04:32:55.495Z,29.05
2022-12-05T04:35:29.341Z,29.08
2022-12-05T04:38:03.306Z,25.92
2022-12-05T04:40:38.065Z,29.73
2022-12-05T04:43:07.193Z,25.20
2022-12-05T04:45:37.779Z,27.83
2022-12-05T04:48:11.971Z,27.13
2022-12-05T04:50:40.036Z,26.20
2022-12-05T04:53:09.468Z,26.70
2022-12-05T04:55:39.727Z,29.80
2022-12-05T04:58:10.510Z,29.00
2022-12-05T05:01:17.299Z,29.10
2022-12-05T05:04:09.367Z,30.67
2022-12-05T05:06:39.317Z,27.38
2022-12-05T05:09:07.166Z,26.55
2022-12-05T05:11:35.847Z,28.58
2022-12-05T05:14:03.041Z,25.70
2022-12-05T05:16:36.590Z,28.48
2022-12-05T05:19:04.332Z,29.17
2022-12-05T05:21:35.227Z,35.58
2022-12-05T05:24:03.228Z,33.00
2022-12-05T05:26:31.585Z,26.98
2022-12-05T05:28:59.385Z,31.95
2022-12-05T05:31:26.931Z,27.35
2022-12-05T05:33:55.927Z,31.77
2022-12-05T05:36:24.987Z,30.92
2022-12-05T05:38:54.530Z,28.05
2022-12-05T05:41:25.536Z,30.52
2022-12-05T05:43:53.229Z,27.77
2022-12-05T05:46:23.748Z,30.63
2022-12-05T05:48:51.426Z,29.10
2022-12-05T05:51:20.004Z,27.67
2022-12-05T05:53:47.519Z,28.10
2022-12-05T05:56:21.568Z,29.20
2022-12-05T05:59:03.939Z,31.60
2022-12-05T06:01:31.350Z,33.15
2022-12-05T06:04:05.904Z,35.15
2022-12-05T06:06:33.224Z,25.17
2022-12-05T06:09:00.339Z,32.08
2022-12-05T06:11:28.670Z,34.47
2022-12-05T06:13:57.379Z,29.00
2022-12-05T06:16:24.861Z,28.67
2022-12-05T06:18:53.072Z,28.42
2022-12-05T06:21:20.353Z,25.98
2022-12-05T06:23:48.076Z,27.92
2022-12-05T06:26:18.277Z,28.35
2022-12-05T06:28:45.589Z,31.60
2022-12-05T06:31:16.360Z,31.00
2022-12-05T06:33:44.136Z,31.30
2022-12-05T06:36:14.302Z,33.50
2022-12-05T06:38:42.476Z,32.03
2022-12-05T06:41:15.074Z,33.97
2022-12-05T06:43:42.974Z,31.35
2022-12-05T06:46:12.577Z,32.10
2022-12-05T06:48:39.803Z,36.38
2022-12-05T06:51:10.883Z,35.95
2022-12-05T06:53:38.501Z,34.30
2022-12-05T06:56:11.652Z,29.92
2022-12-05T06:58:38.823Z,31.48
2022-12-05T07:01:26.052Z,30.20
2022-12-05T07:03:53.241Z,27.48
2022-12-05T07:06:20.281Z,27.80
2022-12-05T07:08:47.576Z,28.60
2022-12-05T07:11:14.683Z,27.38
2022-12-05T07:13:41.757Z,28.15
2022-12-05T07:16:08.945Z,27.67
2022-12-05T07:18:36.778Z,30.77
2022-12-05T07:21:12.183Z,30.17
2022-12-05T07:23:41.123Z,30.92
2022-12-05T07:26:10.052Z,32.90
2022-12-05T07:28:37.258Z,32.08
2022-12-05T07:31:08.504Z,32.40
2022-12-05T07:33:35.938Z,31.85
2022-12-05T07:36:06.366Z,34.28
2022-12-05T07:38:33.870Z,31.85
2022-12-05T07:41:07.831Z,34.33
2022-12-05T07:43:37.425Z,33.15
2022-12-05T07:46:06.387Z,32.25
2022-12-05T07:48:33.697Z,34.20
2022-12-05T07:51:05.857Z,29.15
2022-12-05T07:53:33.521Z,28.25
2022-12-05T07:56:02.183Z,26.20
2022-12-05T07:58:30.167Z,28.77
2022-12-05T08:00:58.405Z,28.60
2022-12-05T08:03:25.594Z,29.77
2022-12-05T08:05:52.899Z,30.42
2022-12-05T08:08:20.069Z,30.75
2022-12-05T08:10:47.285Z,25.40
2022-12-05T08:13:14.329Z,28.52
2022-12-05T08:15:41.436Z,27.77
2022-12-05T08:18:08.572Z,26.67
2022-12-05T08:20:35.740Z,25.42
2022-12-05T08:23:02.802Z,30.42
2022-12-05T08:25:30.049Z,29.38
2022-12-05T08:27:57.137Z,28.95
2022-12-05T08:30:24.561Z,28.95
2022-12-05T08:32:52.036Z,28.13
2022-12-05T08:35:19.143Z,31.63
2022-12-05T08:37:46.242Z,31.75
2022-12-05T08:40:13.663Z,27.83
2022-12-05T08:42:40.742Z,30.40
2022-12-05T08:45:08.524Z,27.27
2022-12-05T08:47:36.170Z,30.42
2022-12-05T08:50:03.654Z,28.48
2022-12-05T08:52:30.772Z,29.45
2022-12-05T08:54:58.085Z,27.08
2022-12-05T08:57:25.316Z,26.33
2022-12-05T08:59:52.602Z,25.98
2022-12-05T09:02:19.741Z,26.25
2022-12-05T09:04:54.410Z,28.13
2022-12-05T09:07:21.487Z,28.30
2022-12-05T09:09:48.664Z,29.00
2022-12-05T09:12:15.781Z,29.52
2022-12-05T09:14:42.819Z,28.95
2022-12-05T09:17:09.854Z,26.40
2022-12-05T09:19:36.906Z,26.83
2022-12-05T09:22:05.467Z,29.40
2022-12-05T09:24:32.521Z,25.13
2022-12-05T09:26:59.657Z,23.75
2022-12-05T09:29:29.615Z,25.17
2022-12-05T09:31:56.741Z,23.83
2022-12-05T09:34:26.146Z,25.95
2022-12-05T09:37:05.487Z,24.40
2022-12-05T09:39:38.077Z,24.08
2022-12-05T09:42:44.841Z,23.65
2022-12-05T09:45:38.017Z,23.73
2022-12-05T09:48:32.773Z,25.10
2022-12-05T09:51:03.217Z,24.27
2022-12-05T09:53:50.225Z,25.40
2022-12-05T09:56:31.117Z,24.08
2022-12-05T09:59:01.037Z,27.55
2022-12-05T10:01:53.830Z,25.38
2022-12-05T10:04:48.748Z,28.17
2022-12-05T10:07:55.706Z,30.05
2022-12-05T10:10:51.057Z,27.95
2022-12-05T10:13:41.122Z,23.83
2022-12-05T10:16:17.500Z,34.40
2022-12-05T10:18:50.883Z,29.17
2022-12-05T10:21:34.501Z,31.63
2022-12-05T10:24:04.965Z,31.48
2022-12-05T10:26:42.091Z,30.55
2022-12-05T10:29:32.050Z,30.20
2022-12-05T10:32:31.030Z,28.40
2022-12-05T10:35:14.857Z,30.02
2022-12-05T10:37:48.941Z,31.08
2022-12-05T10:40:16.948Z,31.35
2022-12-05T10:42:45.232Z,32.58
2022-12-05T10:45:20.170Z,30.05
2022-12-05T10:47:49.030Z,31.42
2022-12-05T10:50:37.065Z,33.70
2022-12-05T10:53:06.504Z,30.88
2022-12-05T10:55:41.223Z,31.92
2022-12-05T10:58:17.819Z,32.20
2022-12-05T11:00:47.922Z,32.88
2022-12-05T11:03:37.567Z,33.58
2022-12-05T11:06:26.178Z,31.48
2022-12-05T11:09:13.985Z,32.67
2022-12-05T11:11:41.358Z,29.55
2022-12-05T11:14:26.676Z,31.42
2022-12-05T11:16:57.839Z,29.50
2022-12-05T11:19:44.843Z,32.08
2022-12-05T11:22:18.155Z,32.15
2022-12-05T11:24:45.252Z,33.80
2022-12-05T11:27:27.536Z,31.90
2022-12-05T11:29:59.503Z,30.63
2022-12-05T11:32:29.727Z,29.90
2022-12-05T11:35:36.563Z,27.85
2022-12-05T11:38:05.811Z,26.75
2022-12-05T11:40:58.386Z,29.67
2022-12-05T11:44:05.155Z,26.00
2022-12-05T11:47:12.104Z,28.20
2022-12-05T11:50:18.965Z,27.33
2022-12-05T11:53:26.455Z,27.33
2022-12-05T11:56:33.573Z,27.75
2022-12-05T11:59:40.324Z,27.45
2022-12-05T12:02:47.124Z,30.85
2022-12-05T12:05:38.608Z,29.88
2022-12-05T12:08:35.879Z,31.30
2022-12-05T12:11:34.074Z,29.20
2022-12-05T12:14:26.834Z,32.55
2022-12-05T12:17:33.602Z,29.95
2022-12-05T12:20:35.003Z,32.35
2022-12-05T12:23:31.582Z,32.00
2022-12-05T12:26:38.601Z,28.55
2022-12-05T12:29:45.454Z,29.80
2022-12-05T12:32:52.317Z,29.85
2022-12-05T12:35:46.594Z,29.95
2022-12-05T12:38:54.697Z,29.42
2022-12-05T12:42:01.751Z,30.45
2022-12-05T12:45:08.574Z,31.55
2022-12-05T12:48:15.401Z,32.28
2022-12-05T12:50:45.597Z,34.88
2022-12-05T12:53:47.763Z,31.88
2022-12-05T12:56:54.564Z,33.10
2022-12-05T13:00:01.367Z,33.47
2022-12-05T13:02:51.662Z,40.25
2022-12-05T13:05:43.010Z,42.15
2022-12-05T13:08:36.056Z,44.65
2022-12-05T13:11:07.373Z,34.85
2022-12-05T13:13:40.351Z,35.15
2022-12-05T13:16:09.609Z,34.85
2022-12-05T13:18:36.938Z,35.38
2022-12-05T13:21:39.211Z,42.17
2022-12-05T13:24:11.096Z,37.97
2022-12-05T13:26:48.355Z,36.90
2022-12-05T13:29:24.577Z,34.25
2022-12-05T13:31:53.259Z,33.42
2022-12-05T13:34:46.225Z,37.42
2022-12-05T13:37:41.332Z,32.65
2022-12-05T13:40:52.447Z,35.35
2022-12-05T13:43:23.944Z,34.88
2022-12-05T13:46:21.425Z,34.30
2022-12-05T13:48:52.867Z,36.33
2022-12-05T13:51:40.572Z,34.22
2022-12-05T13:54:16.986Z,36.40
2022-12-05T13:57:02.357Z,36.08
2022-12-05T14:00:09.917Z,36.17
2022-12-05T14:02:59.496Z,34.38
2022-12-05T14:05:44.592Z,35.92
2022-12-05T14:08:50.910Z,40.67
2022-12-05T14:11:18.253Z,42.17
2022-12-05T14:13:45.807Z,41.35
2022-12-05T14:16:52.695Z,38.70
2022-12-05T14:19:51.320Z,39.03
2022-12-05T14:22:44.135Z,36.20
2022-12-05T14:25:58.505Z,38.13
2022-12-05T14:28:57.738Z,34.45
2022-12-05T14:32:04.894Z,34.35
2022-12-05T14:34:35.104Z,36.53
2022-12-05T14:37:32.008Z,37.17
2022-12-05T14:40:01.182Z,38.75
2022-12-05T14:42:58.760Z,38.80
2022-12-05T14:45:51.001Z,41.13
2022-12-05T14:49:09.660Z,38.97
2022-12-05T14:51:57.510Z,38.00
2022-12-05T14:54:51.849Z,36.55
2022-12-05T14:57:22.181Z,40.28
2022-12-05T15:54:53.487Z,39.53
2022-12-05T15:57:46.719Z,41.65
2022-12-05T16:00:56.929Z,42.20
2022-12-05T16:11:25.513Z,38.25
2022-12-05T18:34:13.204Z,47.47
2022-12-05T18:40:16.690Z,40.30
2022-12-05T18:43:04.535Z,41.50
2022-12-05T19:24:54.247Z,49.78
2022-12-05T19:27:36.785Z,46.50
2022-12-05T19:30:21.190Z,43.30
2022-12-05T19:32:54.303Z,43.75
2022-12-05T19:35:26.551Z,46.00
2022-12-05T19:38:03.391Z,47.55
2022-12-05T19:40:39.574Z,44.28
2022-12-05T19:45:41.059Z,41.47
2022-12-05T19:48:12.680Z,45.65
2022-12-05T19:50:52.201Z,43.03
2022-12-05T19:53:23.365Z,43.58
2022-12-05T19:56:05.783Z,42.78
2022-12-05T19:58:44.384Z,46.45
2022-12-05T20:01:54.666Z,40.72
2022-12-05T20:04:48.103Z,41.72
2022-12-05T20:07:19.588Z,40.92
2022-12-05T20:09:58.897Z,42.90
2022-12-05T20:12:36.640Z,42.22
2022-12-05T20:15:15.107Z,42.80
2022-12-05T20:17:53.167Z,42.65
2022-12-05T20:20:36.203Z,42.45
2022-12-05T20:23:13.429Z,41.53
2022-12-05T20:25:57.304Z,41.92
2022-12-05T20:28:38.748Z,40.63
2022-12-05T20:31:30.286Z,40.30
2022-12-05T20:34:17.279Z,41.25
2022-12-05T20:36:54.564Z,44.22
2022-12-05T20:39:23.221Z,42.58
2022-12-05T20:41:54.504Z,41.53
2022-12-05T20:44:30.009Z,42.28
2022-12-05T20:47:06.035Z,38.53
2022-12-05T20:49:41.198Z,44.15
2022-12-05T20:52:23.068Z,40.22
2022-12-05T20:54:56.744Z,40.97
2022-12-05T20:57:38.057Z,44.80
2022-12-05T21:00:15.945Z,41.67
2022-12-05T21:02:50.161Z,44.45
2022-12-05T21:05:26.952Z,42.05
2022-12-05T21:07:57.689Z,41.28
2022-12-05T21:10:35.640Z,39.35
2022-12-05T21:13:05.043Z,42.03
2022-12-05T21:15:38.173Z,42.63
2022-12-05T21:18:06.080Z,43.70
2022-12-05T21:20:42.222Z,42.47
2022-12-05T21:23:48.032Z,44.55
2022-12-05T21:26:25.025Z,42.53
2022-12-05T21:28:56.829Z,40.25
2022-12-05T21:31:48.822Z,43.08
2022-12-05T21:36:41.230Z,38.80
2022-12-05T21:38:55.895Z,36.13
2022-12-05T21:48:58.684Z,35.53
2022-12-05T21:58:42.172Z,34.15
2022-12-05T22:05:39.827Z,33.17
2022-12-05T22:10:46.179Z,32.00
2022-12-05T22:15:02.295Z,39.83
2022-12-05T22:25:38.179Z,36.63
2022-12-05T22:49:10.645Z,34.25
2022-12-05T23:03:03.235Z,38.20
2022-12-05T23:06:04.733Z,37.55
2022-12-05T23:25:30.374Z,40.83
2022-12-05T23:41:41.680Z,37.75
